KZ-0046 weather

Novotroitskoye Airport
Novotroitskoye, Jambyl Region, Kazakhstan

Public forecast

Using degrees Celsius for public forecast. Weather courtesy of forecast.io.

Closest aviation weather report (METAR) to Novotroitskoye Airport

Closest report is Manas International Airport, 50.1 nm (92.7 km) SE. Retrieved 2019/10/24 03:30 UTC (0 seconds ago):

UCFM 240330Z 23002MPS 200V260 CAVOK 07/M01 Q1024 R08/0///95 NOSIG

Closest aviation forecast (TAF) to Novotroitskoye Airport

Closest forecast is Manas International Airport, 50.1 nm (92.7 km) SE. Retrieved 2019-10-24 00:00 UTC (3 hours ago):

TAF UCFM 232241Z 2400/2424 14003G08MPS 4000 BR NSC TEMPO 2400/2404 1500 BR FU BECMG 2405/2406 32003G08MPS CAVOK BECMG 2414/2415 12003G08MPS 5000 BR